Погода Газаоуана 2 недели

Маради, Нигер

22 июля-04 августа
  • 22июля
    Сегодня
    +22°
    +32°
    Ясно и безоблачно
    ВремяПогодаТемператураВлажностьДавлениеВетер, м/сВероятность осадков
    01:00Небольшая облачность+25°C83 %724 мм3.5 м/с2 %
    04:00Практически безоблачно+24°C86 %724 мм3.6 м/с2 %
    07:00Ясно и безоблачно+24°C89 %724 мм3.6 м/с2 %
    10:00Ясно и безоблачно+27°C69 %725 мм4.8 м/с2 %
    13:00Ясно и безоблачно+30°C55 %724 мм3.0 м/с10 %
    16:00Облачно с прояснениями+31°C51 %722 мм2.0 м/с8 %
    19:00Практически безоблачно+27°C78 %722 мм2.5 м/с41 %
    22:00Пасмурно, дождь+25°C89 %725 мм0.3 м/с55 %
  • 23июля
    Вторник
    +23°
    +31°
    Облачно с прояснениями
    ВремяПогодаТемператураВлажностьДавлениеВетер, м/сВероятность осадков
    01:00Облачно с прояснениями+25°C95 %724 мм4.1 м/с38 %
    04:00Облачно с прояснениями+23°C94 %724 мм3.6 м/с6 %
    07:00Облачно с прояснениями+24°C94 %725 мм4.0 м/с2 %
    10:00Облачно с прояснениями+26°C71 %726 мм3.4 м/с2 %
    13:00Облачно с прояснениями+29°C56 %724 мм2.4 м/с8 %
    16:00Облачно с прояснениями+30°C54 %722 мм1.4 м/с8 %
    19:00Облачно с прояснениями+29°C66 %723 мм1.3 м/с23 %
    22:00Облачно с прояснениями+25°C88 %725 мм2.2 м/с37 %
  • 24июля
    Среда
    +23°
    +31°
    Небольшая облачность
    ВремяПогодаТемператураВлажностьДавлениеВетер, м/сВероятность осадков
    01:00Облачно с прояснениями, небольшой дождь+24°C93 %724 мм3.2 м/с33 %
    04:00Облачно с прояснениями+24°C91 %723 мм3.9 м/с23 %
    07:00Практически безоблачно+24°C91 %724 мм4.0 м/с7 %
    10:00Небольшая облачность+27°C73 %725 мм5.1 м/с9 %
    13:00Небольшая облачность+29°C60 %724 мм3.8 м/с11 %
    16:00Небольшая облачность+31°C55 %722 мм3.8 м/с34 %
    19:00Небольшая облачность+28°C66 %722 мм2.4 м/с27 %
    22:00Небольшая облачность+27°C72 %724 мм3.7 м/с18 %
  • 25июля
    Четверг
    +23°
    +31°
    Небольшая облачность
    ВремяПогодаТемператураВлажностьДавлениеВетер, м/сВероятность осадков
    01:00Ясно и безоблачно+26°C78 %723 мм3.8 м/с15 %
    04:00Ясно и безоблачно+25°C85 %722 мм4.8 м/с9 %
    07:00Облачно с прояснениями+24°C87 %723 мм5.3 м/с7 %
    10:00Небольшая облачность+27°C69 %724 мм8.9 м/с11 %
    13:00Небольшая облачность+28°C58 %722 мм5.9 м/с16 %
    16:00Облачно с прояснениями+30°C56 %721 мм4.9 м/с46 %
    19:00Небольшая облачность+28°C63 %721 мм4.5 м/с30 %
    22:00Практически безоблачно+26°C73 %722 мм3.8 м/с10 %
  • 26июля
    Пятница
    +22°
    +31°
    Облачно с прояснениями
    ВремяПогодаТемператураВлажностьДавлениеВетер, м/сВероятность осадков
    01:00Облачно с прояснениями+25°C79 %722 мм4.8 м/с19 %
    04:00Облачно с прояснениями+25°C83 %721 мм6.0 м/с16 %
    07:00Облачно с прояснениями+24°C86 %722 мм6.3 м/с15 %
    10:00Небольшая облачность+27°C65 %723 мм7.6 м/с16 %
    13:00Облачно с прояснениями+30°C53 %722 мм6.1 м/с14 %
    16:00Ясно и безоблачно+31°C53 %720 мм5.9 м/с29 %
    19:00Ясно и безоблачно+29°C61 %720 мм3.0 м/с26 %
    22:00Практически безоблачно+27°C71 %723 мм4.8 м/с22 %
Мы используем cookies
Соглашаюсь